Costa Fortuna — IBNY — position and weather

sailwx.info

Track history (hours):
 
Tides and Currents Weather Stations Pressure Air Temp Water Temp Dewpoint Dewpoint Depression Visibility Wind Speed Wind Dir Waves Ship Positions

Costa Fortuna

Last reported at 2017-Apr-24 20:58 UTC. Time now 2017-Apr-24 21:04 UTC.
Position N 38°34' E 120°39'.

Length 272 m; draft 8.3 m.

Type: Ship. MMSI: 247094800.

Date/timePositionNaut miles runAvg speedWind from/ knotsBaromVisibWave heightAir tempDewpointWater temp
2017-Apr-24 20:58N 38°34' E 120°39'714.0
2017-Apr-24 20:26N 38°35' E 120°29'613.8
2017-Apr-24 19:59N 38°35' E 120°21'813.8
2017-Apr-24 19:23N 38°37' E 120°11'613.7
2017-Apr-24 18:55N 38°39' E 120°03'713.4
2017-Apr-24 18:26N 38°40' E 119°55'713.2
2017-Apr-24 17:52N 38°42' E 119°46'512.9
2017-Apr-24 17:30N 38°42' E 119°40'612.8
2017-Apr-24 17:00N 38°42' E 119°31'612.6
2017-Apr-24 16:30N 38°43' E 119°23'612.5
2017-Apr-24 16:00N 38°44' E 119°16'612.3
2017-Apr-24 15:30N 38°45' E 119°08'612.1
2017-Apr-24 15:00N 38°46' E 119°00'611.9
2017-Apr-24 14:30N 38°47' E 118°53'1212.0
2017-Apr-24 13:30N 38°48' E 118°37'612.2
2017-Apr-24 13:00N 38°49' E 118°29'612.4
2017-Apr-24 12:30N 38°50' E 118°22'612.4
2017-Apr-24 12:00N 38°51' E 118°14'612.1
2017-Apr-24 11:29N 38°54' E 118°07'510.4
2017-Apr-24 10:59N 38°56' E 118°01'714.0
2017-Apr-24 10:30N 38°57' E 117°52'123 7.0
2017-Apr-23 17:02N 38°38' E 120°28'3413.4
2017-Apr-23 14:30N 38°30' E 121°11'1919.0
2017-Apr-23 13:29N 38°21' E 121°32'  
2017-Apr-19 21:18N 37°56' E 122°17'620.8
2017-Apr-19 21:01N 37°59' E 122°10'1320.7
2017-Apr-19 20:22N 38°06' E 121°56'1020.4
2017-Apr-19 19:54N 38°10' E 121°45'819.7
2017-Apr-19 19:29N 38°14' E 121°36'1420.7
2017-Apr-19 18:49N 38°21' E 121°21'720.7
2017-Apr-19 18:28N 38°26' E 121°14'1019.7
2017-Apr-19 17:59N 38°30' E 121°03'913.9
2017-Apr-19 17:18N 38°33' E 120°51'410.2
2017-Apr-19 16:57N 38°34' E 120°47'814.1
2017-Apr-19 16:24N 38°35' E 120°37'920.3
2017-Apr-19 15:59N 38°37' E 120°26'1020.2
2017-Apr-19 15:30N 38°38' E 120°14'10 0.5
2017-Apr-18 17:12N 38°42' E 120°27'3513.8
2017-Apr-18 14:41N 38°30' E 121°09'618.9
2017-Apr-18 14:23N 38°28' E 121°15'1820.0
2017-Apr-18 13:29N 38°20' E 121°35'1019.8
2017-Apr-18 13:00N 38°13' E 121°45'1020.0
2017-Apr-18 12:30N 38°08' E 121°55'1019.8
2017-Apr-18 12:00N 38°04' E 122°07'1019.7
2017-Apr-18 11:30N 37°59' E 122°18'1119.6
2017-Apr-18 10:56N 37°54' E 122°30'819.4
2017-Apr-18 10:31N 37°51' E 122°40'918.9
2017-Apr-18 10:00N 37°45' E 122°49'1019.0
2017-Apr-18 09:30N 37°40' E 122°59'2017.7
2017-Apr-18 08:21N 37°25' E 123°17'  
2017-Apr-15 12:31N 36°25' E 123°51'10712.7
2017-Apr-15 04:10N 37°49' E 122°28'213.5
2017-Apr-15 04:00N 37°50' E 122°26'713.2
2017-Apr-15 03:30N 37°54' E 122°19'613.1
2017-Apr-15 03:00N 37°57' E 122°12'713.2
2017-Apr-15 02:30N 38°01' E 122°05'713.2
2017-Apr-15 02:00N 38°04' E 121°57'613.3
2017-Apr-15 01:31N 38°07' E 121°50'713.3
2017-Apr-15 01:00N 38°10' E 121°42'713.5
2017-Apr-15 00:30N 38°13' E 121°35'713.6
2017-Apr-15 00:00N 38°17' E 121°28'913.8
2017-Apr-14 23:20N 38°22' E 121°18'513.9
2017-Apr-14 23:01N 38°24' E 121°13'1113.8
2017-Apr-14 22:11N 38°30' E 121°00'313.7
2017-Apr-14 21:57N 38°31' E 120°57'813.7
2017-Apr-14 21:23N 38°33' E 120°47'513.6
2017-Apr-14 21:00N 38°34' E 120°40'  
Track history (hours):
 
Tides and Currents Weather Stations Pressure Air Temp Water Temp Dewpoint Dewpoint Depression Visibility Wind Speed Wind Dir Waves Ship Positions

Costa Fortuna

Last reported at 2017-Apr-24 20:58 UTC. Time now 2017-Apr-24 21:04 UTC.
Position N 38°34' E 120°39'.

Length 272 m; draft 8.3 m.

Type: Ship. MMSI: 247094800.

Date/timePositionNaut miles runAvg speedWind from/ knotsBaromVisibWave heightAir tempDewpointWater temp
2017-Apr-24 20:58N 38°34' E 120°39'714.0
2017-Apr-24 20:26N 38°35' E 120°29'613.8
2017-Apr-24 19:59N 38°35' E 120°21'813.8
2017-Apr-24 19:23N 38°37' E 120°11'613.7
2017-Apr-24 18:55N 38°39' E 120°03'713.4
2017-Apr-24 18:26N 38°40' E 119°55'713.2
2017-Apr-24 17:52N 38°42' E 119°46'512.9
2017-Apr-24 17:30N 38°42' E 119°40'612.8
2017-Apr-24 17:00N 38°42' E 119°31'612.6
2017-Apr-24 16:30N 38°43' E 119°23'612.5
2017-Apr-24 16:00N 38°44' E 119°16'612.3
2017-Apr-24 15:30N 38°45' E 119°08'612.1
2017-Apr-24 15:00N 38°46' E 119°00'611.9
2017-Apr-24 14:30N 38°47' E 118°53'1212.0
2017-Apr-24 13:30N 38°48' E 118°37'612.2
2017-Apr-24 13:00N 38°49' E 118°29'612.4
2017-Apr-24 12:30N 38°50' E 118°22'612.4
2017-Apr-24 12:00N 38°51' E 118°14'612.1
2017-Apr-24 11:29N 38°54' E 118°07'510.4
2017-Apr-24 10:59N 38°56' E 118°01'714.0
2017-Apr-24 10:30N 38°57' E 117°52'123 7.0
2017-Apr-23 17:02N 38°38' E 120°28'3413.4
2017-Apr-23 14:30N 38°30' E 121°11'1919.0
2017-Apr-23 13:29N 38°21' E 121°32'  
2017-Apr-19 21:18N 37°56' E 122°17'620.8
2017-Apr-19 21:01N 37°59' E 122°10'1320.7
2017-Apr-19 20:22N 38°06' E 121°56'1020.4
2017-Apr-19 19:54N 38°10' E 121°45'819.7
2017-Apr-19 19:29N 38°14' E 121°36'1420.7
2017-Apr-19 18:49N 38°21' E 121°21'720.7
2017-Apr-19 18:28N 38°26' E 121°14'1019.7
2017-Apr-19 17:59N 38°30' E 121°03'913.9
2017-Apr-19 17:18N 38°33' E 120°51'410.2
2017-Apr-19 16:57N 38°34' E 120°47'814.1
2017-Apr-19 16:24N 38°35' E 120°37'920.3
2017-Apr-19 15:59N 38°37' E 120°26'1020.2
2017-Apr-19 15:30N 38°38' E 120°14'10 0.5
2017-Apr-18 17:12N 38°42' E 120°27'3513.8
2017-Apr-18 14:41N 38°30' E 121°09'618.9
2017-Apr-18 14:23N 38°28' E 121°15'1820.0
2017-Apr-18 13:29N 38°20' E 121°35'1019.8
2017-Apr-18 13:00N 38°13' E 121°45'1020.0
2017-Apr-18 12:30N 38°08' E 121°55'1019.8
2017-Apr-18 12:00N 38°04' E 122°07'1019.7
2017-Apr-18 11:30N 37°59' E 122°18'1119.6
2017-Apr-18 10:56N 37°54' E 122°30'819.4
2017-Apr-18 10:31N 37°51' E 122°40'918.9
2017-Apr-18 10:00N 37°45' E 122°49'1019.0
2017-Apr-18 09:30N 37°40' E 122°59'2017.7
2017-Apr-18 08:21N 37°25' E 123°17'  
2017-Apr-15 12:31N 36°25' E 123°51'10712.7
2017-Apr-15 04:10N 37°49' E 122°28'213.5
2017-Apr-15 04:00N 37°50' E 122°26'713.2
2017-Apr-15 03:30N 37°54' E 122°19'613.1
2017-Apr-15 03:00N 37°57' E 122°12'713.2
2017-Apr-15 02:30N 38°01' E 122°05'713.2
2017-Apr-15 02:00N 38°04' E 121°57'613.3
2017-Apr-15 01:31N 38°07' E 121°50'713.3
2017-Apr-15 01:00N 38°10' E 121°42'713.5
2017-Apr-15 00:30N 38°13' E 121°35'713.6
2017-Apr-15 00:00N 38°17' E 121°28'913.8
2017-Apr-14 23:20N 38°22' E 121°18'513.9
2017-Apr-14 23:01N 38°24' E 121°13'1113.8
2017-Apr-14 22:11N 38°30' E 121°00'313.7
2017-Apr-14 21:57N 38°31' E 120°57'813.7
2017-Apr-14 21:23N 38°33' E 120°47'513.6
2017-Apr-14 21:00N 38°34' E 120°40'  

Dump ship's entire track history